createdAt,value
2019-03-19T00:00:47.810Z,0.00
2019-03-19T00:01:47.946Z,0.00
2019-03-19T00:02:48.100Z,0.00
2019-03-19T00:03:48.266Z,0.00
2019-03-19T00:04:48.409Z,0.00
2019-03-19T00:05:48.571Z,0.00
2019-03-19T00:06:48.727Z,0.00
2019-03-19T00:07:48.900Z,0.00
2019-03-19T00:08:49.060Z,0.00
2019-03-19T00:09:49.212Z,0.00
2019-03-19T00:10:49.372Z,0.00
2019-03-19T00:11:49.536Z,0.00
2019-03-19T00:12:49.695Z,0.00
2019-03-19T00:13:49.863Z,0.00
2019-03-19T00:14:50.008Z,0.00
2019-03-19T00:15:50.166Z,0.00
2019-03-19T00:16:50.332Z,0.00
2019-03-19T00:17:50.477Z,0.00
2019-03-19T00:18:50.649Z,0.00
2019-03-19T00:19:50.806Z,0.00
2019-03-19T00:20:50.953Z,0.00
2019-03-19T00:21:51.126Z,0.00
2019-03-19T00:22:51.294Z,0.00
2019-03-19T00:23:51.462Z,0.00
2019-03-19T00:24:51.640Z,0.00
2019-03-19T00:25:53.179Z,0.00
2019-03-19T00:26:51.942Z,0.00
2019-03-19T00:27:52.100Z,0.00
2019-03-19T00:28:52.302Z,0.00
2019-03-19T00:29:52.418Z,0.00
2019-03-19T00:30:52.580Z,0.00
2019-03-19T00:31:52.741Z,0.00
2019-03-19T00:32:52.900Z,0.00
2019-03-19T00:33:53.061Z,0.00
2019-03-19T00:34:53.220Z,0.00
2019-03-19T00:35:53.406Z,0.00
2019-03-19T00:36:53.571Z,0.00
2019-03-19T00:37:53.734Z,0.00
2019-03-19T00:38:53.905Z,0.00
2019-03-19T00:39:54.051Z,0.00
2019-03-19T00:40:54.205Z,0.00
2019-03-19T00:41:54.370Z,0.00
2019-03-19T00:42:54.526Z,0.00
2019-03-19T00:43:54.678Z,0.00
2019-03-19T00:44:54.843Z,0.00
2019-03-19T00:45:55.015Z,0.00
2019-03-19T00:46:55.185Z,0.00
2019-03-19T00:47:55.355Z,0.00
2019-03-19T00:48:55.528Z,0.00
2019-03-19T00:49:55.705Z,0.00
2019-03-19T00:50:55.863Z,0.00
2019-03-19T00:51:56.045Z,0.00
2019-03-19T00:52:56.202Z,0.00
2019-03-19T00:53:56.373Z,0.00
2019-03-19T00:54:56.544Z,0.00
2019-03-19T00:55:56.709Z,0.00
2019-03-19T00:56:56.886Z,0.00
2019-03-19T00:58:04.677Z,0.00
2019-03-19T00:58:57.212Z,0.00
2019-03-19T00:59:57.380Z,0.00
2019-03-19T01:00:57.551Z,0.00
2019-03-19T01:01:57.723Z,0.00
2019-03-19T01:02:57.893Z,0.00
2019-03-19T01:03:58.063Z,0.00
2019-03-19T01:04:58.248Z,0.00
2019-03-19T01:06:58.574Z,0.00
2019-03-19T01:07:58.817Z,0.00
2019-03-19T01:08:58.919Z,0.00
2019-03-19T01:09:59.092Z,0.00
2019-03-19T01:10:59.263Z,0.00
2019-03-19T01:11:59.438Z,0.00
2019-03-19T01:12:59.608Z,0.00
2019-03-19T01:13:59.773Z,0.00
2019-03-19T01:14:59.948Z,0.00
2019-03-19T01:16:00.116Z,0.00
2019-03-19T01:17:00.293Z,0.00
2019-03-19T01:18:00.457Z,0.00
2019-03-19T01:19:00.636Z,0.00
2019-03-19T01:20:00.798Z,0.00
2019-03-19T01:21:00.973Z,0.00
2019-03-19T01:22:01.144Z,0.00
2019-03-19T01:23:01.328Z,0.00
2019-03-19T01:24:01.499Z,0.00
2019-03-19T01:25:01.670Z,0.00
2019-03-19T01:26:01.840Z,0.00
2019-03-19T01:27:02.009Z,0.00
2019-03-19T01:28:02.179Z,0.00
2019-03-19T01:29:02.348Z,0.00
2019-03-19T01:30:02.525Z,0.00
2019-03-19T01:31:02.735Z,0.00
2019-03-19T01:32:02.869Z,0.00
2019-03-19T01:33:03.034Z,0.00
2019-03-19T01:34:03.207Z,0.00
2019-03-19T01:35:03.364Z,0.00
2019-03-19T01:36:03.544Z,0.00
2019-03-19T01:37:03.708Z,0.00
2019-03-19T01:38:03.883Z,0.00
2019-03-19T01:39:04.056Z,0.00
2019-03-19T01:40:04.241Z,0.00
2019-03-19T01:41:04.398Z,0.00
2019-03-19T01:42:04.568Z,0.00
2019-03-19T01:43:04.791Z,0.00
2019-03-19T01:44:04.905Z,0.00
2019-03-19T01:45:05.073Z,0.00
2019-03-19T01:46:05.247Z,0.00
2019-03-19T01:47:05.468Z,0.00
2019-03-19T01:48:05.586Z,0.00
2019-03-19T01:49:05.758Z,0.00
2019-03-19T01:50:05.925Z,0.00
2019-03-19T01:51:06.084Z,0.00
2019-03-19T01:52:06.275Z,0.00
2019-03-19T01:53:06.433Z,0.00
2019-03-19T01:54:06.600Z,0.00
2019-03-19T01:55:06.775Z,0.00
2019-03-19T01:56:06.947Z,0.00
2019-03-19T01:57:07.124Z,0.00
2019-03-19T01:58:07.285Z,0.00
2019-03-19T01:59:07.465Z,0.00
2019-03-19T02:00:07.634Z,0.00
2019-03-19T02:01:07.801Z,0.00
2019-03-19T02:02:07.978Z,0.00
2019-03-19T02:03:08.143Z,0.00
2019-03-19T02:04:08.311Z,0.00
2019-03-19T02:05:08.484Z,0.00
2019-03-19T02:06:08.654Z,0.00
2019-03-19T02:07:08.831Z,0.00
2019-03-19T02:08:09.002Z,0.00
2019-03-19T02:09:09.169Z,0.00
2019-03-19T02:10:09.346Z,0.00
2019-03-19T02:11:09.511Z,0.00
2019-03-19T02:12:09.686Z,0.00
2019-03-19T02:13:09.859Z,0.00
2019-03-19T02:14:10.029Z,0.00
2019-03-19T02:15:10.200Z,0.00
2019-03-19T02:16:10.369Z,0.00
2019-03-19T02:17:12.562Z,0.00
2019-03-19T02:18:10.712Z,0.00
2019-03-19T02:19:10.871Z,0.00
2019-03-19T02:20:11.040Z,0.00
2019-03-19T02:21:11.211Z,0.00
2019-03-19T02:22:11.387Z,0.00
2019-03-19T02:23:11.550Z,0.00
2019-03-19T02:24:11.722Z,0.00
2019-03-19T02:25:11.893Z,0.00
2019-03-19T02:26:16.328Z,0.00
2019-03-19T02:27:12.238Z,0.00
2019-03-19T02:28:12.409Z,0.00
2019-03-19T02:29:12.570Z,0.00
2019-03-19T02:30:12.780Z,0.00
2019-03-19T02:31:12.922Z,0.00
2019-03-19T02:32:13.092Z,0.00
2019-03-19T02:33:13.263Z,0.00
2019-03-19T02:34:13.435Z,0.00
2019-03-19T02:35:13.645Z,0.00
2019-03-19T02:36:13.769Z,0.00
2019-03-19T02:37:13.956Z,0.00
2019-03-19T02:38:14.123Z,0.00
2019-03-19T02:39:14.288Z,0.00
2019-03-19T02:40:14.453Z,0.00
2019-03-19T02:41:14.619Z,0.00
2019-03-19T02:42:14.788Z,0.00
2019-03-19T02:43:14.958Z,0.00
2019-03-19T02:44:15.120Z,0.00
2019-03-19T02:45:15.300Z,0.00
2019-03-19T02:46:15.481Z,0.00
2019-03-19T02:47:15.640Z,0.00
2019-03-19T02:48:15.812Z,0.00
2019-03-19T02:49:16.001Z,0.00
2019-03-19T02:50:16.162Z,0.00
2019-03-19T02:51:16.337Z,0.00
2019-03-19T02:52:16.501Z,0.00
2019-03-19T02:53:16.665Z,0.00
2019-03-19T02:54:16.830Z,0.00
2019-03-19T02:55:17.015Z,0.00
2019-03-19T02:56:31.721Z,0.00
2019-03-19T02:57:17.355Z,0.00
2019-03-19T02:58:17.524Z,0.00
2019-03-19T02:59:17.714Z,0.00
2019-03-19T03:00:17.865Z,0.00
2019-03-19T03:01:18.031Z,0.00
2019-03-19T03:02:18.215Z,0.00
2019-03-19T03:03:18.382Z,0.00
2019-03-19T03:04:18.545Z,0.00
2019-03-19T03:05:18.710Z,0.00
2019-03-19T03:06:18.911Z,0.00
2019-03-19T03:07:19.072Z,0.00
2019-03-19T03:08:19.231Z,0.00
2019-03-19T03:09:19.399Z,0.00
2019-03-19T03:10:19.570Z,0.00
2019-03-19T03:11:19.744Z,0.00
2019-03-19T03:12:19.914Z,0.00
2019-03-19T03:13:20.080Z,0.00
2019-03-19T03:14:20.253Z,0.00
2019-03-19T03:15:20.421Z,0.00
2019-03-19T03:16:20.593Z,0.00
2019-03-19T03:17:20.764Z,0.00
2019-03-19T03:18:20.956Z,0.00
2019-03-19T03:19:21.105Z,0.00
2019-03-19T03:20:21.287Z,0.00
2019-03-19T03:21:21.457Z,0.00
2019-03-19T03:22:21.614Z,0.00
2019-03-19T03:23:21.799Z,0.00
2019-03-19T03:24:21.955Z,0.00
2019-03-19T03:25:22.130Z,0.00
2019-03-19T03:26:22.314Z,0.00
2019-03-19T03:27:22.484Z,0.00
2019-03-19T03:28:22.652Z,0.00
2019-03-19T03:29:22.814Z,0.00
2019-03-19T03:30:23.019Z,0.00
2019-03-19T03:31:23.331Z,0.00
2019-03-19T03:32:23.323Z,0.00
2019-03-19T03:33:23.547Z,0.00
2019-03-19T03:34:23.663Z,0.00
2019-03-19T03:35:23.843Z,0.00
2019-03-19T03:36:24.032Z,0.00
2019-03-19T03:37:24.177Z,0.00
2019-03-19T03:38:24.357Z,0.00
2019-03-19T03:39:24.519Z,0.00
2019-03-19T03:40:24.685Z,0.00
2019-03-19T03:41:24.858Z,0.00
2019-03-19T03:42:25.029Z,0.00
2019-03-19T03:43:25.202Z,0.00
2019-03-19T03:44:25.366Z,0.00
2019-03-19T03:45:25.543Z,0.00
2019-03-19T03:46:25.707Z,0.00
2019-03-19T03:47:25.882Z,0.00
2019-03-19T03:48:26.053Z,0.00
2019-03-19T03:49:26.229Z,0.00
2019-03-19T03:50:26.400Z,0.00
2019-03-19T03:51:26.570Z,0.00
2019-03-19T03:52:26.738Z,0.00
2019-03-19T03:53:26.907Z,0.00
2019-03-19T03:54:27.083Z,0.00
2019-03-19T03:55:27.257Z,0.00
2019-03-19T03:56:27.407Z,0.00
2019-03-19T03:57:27.612Z,0.00
2019-03-19T03:58:27.752Z,0.00
2019-03-19T03:59:27.921Z,0.00
2019-03-19T04:00:28.090Z,0.00
2019-03-19T04:01:28.262Z,0.00
2019-03-19T04:02:28.432Z,0.00
2019-03-19T04:03:28.603Z,0.00
2019-03-19T04:04:28.766Z,0.00
2019-03-19T04:05:28.939Z,0.00
2019-03-19T04:06:29.113Z,0.00
2019-03-19T04:07:29.292Z,0.00
2019-03-19T04:08:29.452Z,0.00
2019-03-19T04:09:29.622Z,0.00
2019-03-19T04:10:29.793Z,0.00
2019-03-19T04:11:29.964Z,0.00
2019-03-19T04:12:30.134Z,0.00
2019-03-19T04:13:30.309Z,0.00
2019-03-19T04:14:30.481Z,0.00
2019-03-19T04:15:30.650Z,0.00
2019-03-19T04:16:30.817Z,0.00
2019-03-19T04:17:30.993Z,0.00
2019-03-19T04:18:31.142Z,0.00
2019-03-19T04:19:31.310Z,0.00
2019-03-19T04:20:31.491Z,0.00
2019-03-19T04:21:31.647Z,0.00
2019-03-19T04:22:31.827Z,0.00
2019-03-19T04:23:32.004Z,0.00
2019-03-19T04:24:32.167Z,0.00
2019-03-19T04:25:32.339Z,0.00
2019-03-19T04:26:32.507Z,0.00
2019-03-19T04:27:32.673Z,0.00
2019-03-19T04:28:32.848Z,0.00
2019-03-19T04:29:33.024Z,0.00
2019-03-19T04:30:33.201Z,0.00
2019-03-19T04:31:33.370Z,0.00
2019-03-19T04:32:33.538Z,0.00
2019-03-19T04:33:33.702Z,0.00
2019-03-19T04:34:33.875Z,0.00
2019-03-19T04:35:34.046Z,0.00
2019-03-19T04:36:34.222Z,0.00
2019-03-19T04:37:34.397Z,0.00
2019-03-19T04:38:43.053Z,0.00
2019-03-19T04:39:34.712Z,0.00
2019-03-19T04:40:34.882Z,0.00
2019-03-19T04:41:35.049Z,0.00
2019-03-19T04:42:35.222Z,0.00
2019-03-19T04:43:35.404Z,0.00
2019-03-19T04:44:35.560Z,0.00
2019-03-19T04:45:35.730Z,0.00
2019-03-19T04:46:35.903Z,0.00
2019-03-19T04:47:36.070Z,0.00
2019-03-19T04:48:36.240Z,0.00
2019-03-19T04:49:36.410Z,0.00
2019-03-19T04:50:36.583Z,4.00
2019-03-19T04:51:36.752Z,4.00
2019-03-19T04:52:36.923Z,0.00
2019-03-19T04:53:37.094Z,4.00
2019-03-19T04:54:37.262Z,4.00
2019-03-19T04:55:37.430Z,4.00
2019-03-19T04:56:37.607Z,4.00
2019-03-19T04:57:37.779Z,4.00
2019-03-19T04:58:37.947Z,4.00
2019-03-19T04:59:38.117Z,8.00
2019-03-19T05:00:38.281Z,8.00
2019-03-19T05:01:38.458Z,8.00
2019-03-19T05:02:38.625Z,12.00
2019-03-19T05:03:38.806Z,12.00
2019-03-19T05:04:38.974Z,16.00
2019-03-19T05:05:39.141Z,20.00
2019-03-19T05:06:39.311Z,20.00
2019-03-19T05:07:39.497Z,24.00
2019-03-19T05:08:39.651Z,28.00
2019-03-19T05:09:39.827Z,32.00
2019-03-19T05:10:39.996Z,36.00
2019-03-19T05:11:40.189Z,44.00
2019-03-19T05:12:40.334Z,52.00
2019-03-19T05:13:40.499Z,64.00
2019-03-19T05:14:40.671Z,72.00
2019-03-19T05:15:40.842Z,80.00
2019-03-19T05:16:41.003Z,96.00
2019-03-19T05:17:41.174Z,108.00
2019-03-19T05:18:41.345Z,124.00
2019-03-19T05:19:41.516Z,136.00
2019-03-19T05:20:41.698Z,152.00
2019-03-19T05:21:41.855Z,176.00
2019-03-19T05:22:42.020Z,200.00
2019-03-19T05:23:42.193Z,220.00
2019-03-19T05:24:42.364Z,248.00
2019-03-19T05:25:42.547Z,276.00
2019-03-19T05:26:42.708Z,304.00
2019-03-19T05:27:42.879Z,336.00
2019-03-19T05:28:43.053Z,368.00
2019-03-19T05:29:43.222Z,404.00
2019-03-19T05:30:43.404Z,440.00
2019-03-19T05:31:43.575Z,476.00
2019-03-19T05:32:43.750Z,516.00
2019-03-19T05:33:43.905Z,556.00
2019-03-19T05:34:44.076Z,604.00
2019-03-19T05:35:44.245Z,644.00
2019-03-19T05:36:44.412Z,688.00
2019-03-19T05:37:44.598Z,736.00
2019-03-19T05:38:44.760Z,792.00
2019-03-19T05:39:44.922Z,840.00
2019-03-19T05:40:45.089Z,912.00
2019-03-19T05:41:45.266Z,988.00
2019-03-19T05:42:45.426Z,1080.00
2019-03-19T05:43:45.594Z,1184.00
2019-03-19T05:44:45.756Z,1284.00
2019-03-19T05:45:45.928Z,1356.00
2019-03-19T05:46:46.095Z,1476.00
2019-03-19T05:47:46.271Z,1568.00
2019-03-19T05:48:46.438Z,1672.00
2019-03-19T05:49:46.612Z,1776.00
2019-03-19T05:50:46.783Z,1864.00
2019-03-19T05:51:46.960Z,1988.00
2019-03-19T05:52:48.535Z,2108.00
2019-03-19T05:53:47.298Z,2220.00
2019-03-19T05:54:47.467Z,2340.00
2019-03-19T05:55:47.636Z,2452.00
2019-03-19T05:56:47.808Z,2564.00
2019-03-19T05:57:50.343Z,2716.00
2019-03-19T05:58:48.137Z,2844.00
2019-03-19T05:59:48.312Z,2980.00
2019-03-19T06:00:48.471Z,3168.00
2019-03-19T06:01:48.651Z,3312.00
2019-03-19T06:02:48.817Z,3452.00
2019-03-19T06:03:48.988Z,3608.00
2019-03-19T06:04:49.154Z,3732.00
2019-03-19T06:05:49.326Z,3860.00
2019-03-19T06:06:49.516Z,3948.00
2019-03-19T06:07:49.683Z,4144.00
2019-03-19T06:08:49.861Z,4148.00
2019-03-19T06:09:50.029Z,4292.00
2019-03-19T06:10:50.198Z,4444.00
2019-03-19T06:11:50.378Z,4656.00
2019-03-19T06:12:50.553Z,4812.00
2019-03-19T06:13:50.729Z,5072.00
2019-03-19T06:14:50.913Z,5176.00
2019-03-19T06:15:51.077Z,6664.00
2019-03-19T06:16:51.248Z,14336.00
2019-03-19T06:17:51.949Z,21024.00
2019-03-19T06:18:51.632Z,22656.00
2019-03-19T06:19:51.800Z,25920.00
2019-03-19T06:20:51.962Z,26208.00
2019-03-19T06:21:52.139Z,25920.00
2019-03-19T06:22:52.313Z,24608.00
2019-03-19T06:23:52.490Z,24832.00
2019-03-19T06:24:52.663Z,22592.00
2019-03-19T06:28:25.071Z,29248.00
2019-03-19T06:29:25.262Z,29376.00
2019-03-19T06:30:26.070Z,31328.00
2019-03-19T06:31:25.588Z,33120.00
2019-03-19T06:32:25.745Z,34400.00
2019-03-19T06:33:25.927Z,34016.00
2019-03-19T06:34:26.100Z,33888.00
2019-03-19T06:35:26.272Z,34560.00
2019-03-19T06:36:26.451Z,35872.00
2019-03-19T06:37:26.613Z,34784.00
2019-03-19T06:38:26.783Z,33440.00
2019-03-19T06:39:26.962Z,33504.00
2019-03-19T06:40:27.126Z,34208.00
2019-03-19T06:41:27.306Z,35392.00
2019-03-19T06:42:27.484Z,35488.00
2019-03-19T06:43:27.652Z,34656.00
2019-03-19T06:44:27.837Z,34400.00
2019-03-19T06:45:28.000Z,34528.00
2019-03-19T06:46:28.175Z,35584.00
2019-03-19T06:47:28.351Z,36160.00
2019-03-19T06:48:28.532Z,37216.00
2019-03-19T06:49:28.704Z,37120.00
2019-03-19T06:50:28.883Z,36608.00
2019-03-19T06:51:29.062Z,35840.00
2019-03-19T06:52:29.232Z,35008.00
2019-03-19T06:53:29.420Z,35872.00
2019-03-19T06:54:29.750Z,37280.00
2019-03-19T06:55:29.754Z,37792.00
2019-03-19T06:56:29.933Z,38848.00
2019-03-19T06:57:38.955Z,39040.00
2019-03-19T06:58:30.279Z,38272.00
2019-03-19T06:59:30.465Z,37760.00
2019-03-19T07:00:30.642Z,39168.00
2019-03-19T07:01:30.817Z,41536.00
2019-03-19T07:02:31.000Z,42432.00
2019-03-19T07:03:31.172Z,38112.00
2019-03-19T07:04:31.361Z,37664.00
2019-03-19T07:05:31.522Z,36544.00
2019-03-19T07:06:31.716Z,38784.00
2019-03-19T07:07:31.969Z,40416.00
2019-03-19T07:08:32.055Z,40192.00
2019-03-19T07:09:32.237Z,38944.00
2019-03-19T07:10:32.414Z,39552.00
2019-03-19T07:11:32.601Z,40544.00
2019-03-19T07:12:32.770Z,39712.00
2019-03-19T07:13:32.953Z,38400.00
2019-03-19T07:14:33.138Z,38336.00
2019-03-19T07:15:33.301Z,38272.00
2019-03-19T07:16:33.482Z,37792.00
2019-03-19T07:17:33.656Z,38368.00
2019-03-19T07:19:34.007Z,40672.00
2019-03-19T07:20:34.179Z,39968.00
2019-03-19T07:21:34.359Z,38784.00
2019-03-19T07:22:34.539Z,37888.00
2019-03-19T07:23:34.723Z,37824.00
2019-03-19T07:24:34.900Z,38368.00
2019-03-19T07:25:35.083Z,39328.00
2019-03-19T07:26:35.257Z,40352.00
2019-03-19T07:27:35.463Z,40800.00
2019-03-19T07:28:35.644Z,39200.00
2019-03-19T07:29:35.872Z,37184.00
2019-03-19T07:30:35.989Z,35488.00
2019-03-19T07:31:36.169Z,35392.00
2019-03-19T07:32:36.361Z,36448.00
2019-03-19T07:33:36.524Z,37408.00
2019-03-19T07:34:36.702Z,36800.00
2019-03-19T07:35:36.881Z,35328.00
2019-03-19T07:36:37.065Z,35584.00
2019-03-19T07:37:37.249Z,36192.00
2019-03-19T07:38:37.424Z,36256.00
2019-03-19T07:39:37.607Z,35840.00
2019-03-19T07:40:37.783Z,34112.00
2019-03-19T07:41:37.962Z,33472.00
2019-03-19T07:42:38.144Z,33472.00
2019-03-19T07:43:38.311Z,34496.00
2019-03-19T07:44:38.492Z,34432.00
2019-03-19T07:45:38.677Z,33408.00
2019-03-19T07:46:38.850Z,32480.00
2019-03-19T07:47:39.029Z,32000.00
2019-03-19T07:48:39.436Z,31616.00
2019-03-19T07:49:39.576Z,31424.00
2019-03-19T07:50:39.522Z,32480.00
2019-03-19T07:51:39.700Z,32384.00
2019-03-19T07:52:39.881Z,31008.00
2019-03-19T07:53:40.059Z,30368.00
2019-03-19T07:54:40.238Z,30784.00
2019-03-19T07:55:40.411Z,30176.00
2019-03-19T07:56:40.597Z,29024.00
2019-03-19T07:57:40.790Z,29312.00
2019-03-19T07:58:45.395Z,29792.00
2019-03-19T07:59:41.173Z,29216.00
2019-03-19T08:00:41.397Z,28800.00
2019-03-19T08:01:41.545Z,29440.00
2019-03-19T08:02:41.726Z,28896.00
2019-03-19T08:03:41.897Z,27104.00
2019-03-19T08:04:42.081Z,26944.00
2019-03-19T08:05:42.258Z,26656.00
2019-03-19T08:06:42.438Z,25952.00
2019-03-19T08:07:42.616Z,25216.00
2019-03-19T08:08:42.796Z,25408.00
2019-03-19T08:09:42.974Z,25344.00
2019-03-19T08:10:43.156Z,24672.00
2019-03-19T08:11:43.345Z,24736.00
2019-03-19T08:12:43.525Z,24544.00
2019-03-19T08:13:43.703Z,24544.00
2019-03-19T08:14:44.025Z,24576.00
2019-03-19T08:15:44.062Z,23936.00
2019-03-19T08:16:44.255Z,23360.00
2019-03-19T08:17:44.429Z,23328.00
2019-03-19T08:18:44.596Z,24032.00
2019-03-19T08:19:44.774Z,23808.00
2019-03-19T08:20:44.952Z,21920.00
2019-03-19T08:21:45.130Z,20448.00
2019-03-19T08:22:45.321Z,21952.00
2019-03-19T08:23:45.491Z,21632.00
2019-03-19T08:24:45.676Z,21568.00
2019-03-19T08:25:45.854Z,20640.00
2019-03-19T08:26:46.038Z,19936.00
2019-03-19T08:27:46.284Z,19584.00
2019-03-19T08:28:55.036Z,19104.00
2019-03-19T08:29:46.571Z,18880.00
2019-03-19T08:30:46.760Z,18304.00
2019-03-19T08:31:46.949Z,17760.00
2019-03-19T08:32:47.113Z,17824.00
2019-03-19T08:33:47.282Z,17888.00
2019-03-19T08:34:47.457Z,18208.00
2019-03-19T08:35:47.638Z,17888.00
2019-03-19T08:36:47.823Z,11984.00
2019-03-19T08:37:48.006Z,10292.00
2019-03-19T08:38:48.187Z,17472.00
2019-03-19T08:39:48.371Z,17952.00
2019-03-19T08:40:50.942Z,12064.00
2019-03-19T08:41:48.721Z,18592.00
2019-03-19T08:42:48.918Z,18368.00
2019-03-19T08:43:49.084Z,18080.00
2019-03-19T08:44:49.276Z,18208.00
2019-03-19T08:45:49.441Z,17504.00
2019-03-19T08:46:49.618Z,17440.00
2019-03-19T08:47:49.812Z,9360.00
2019-03-19T08:48:49.972Z,17536.00
2019-03-19T08:49:50.151Z,12556.00
2019-03-19T08:50:50.388Z,13748.00
2019-03-19T08:51:50.531Z,8700.00
2019-03-19T08:52:50.714Z,8956.00
2019-03-19T08:53:50.889Z,12476.00
2019-03-19T08:54:51.061Z,9768.00
2019-03-19T08:55:51.247Z,8304.00
2019-03-19T08:56:51.429Z,7544.00
2019-03-19T08:57:51.605Z,7020.00
2019-03-19T08:58:51.780Z,6748.00
2019-03-19T08:59:51.960Z,6716.00
2019-03-19T09:00:52.134Z,6848.00
2019-03-19T09:01:52.314Z,6972.00
2019-03-19T09:02:52.505Z,10712.00
2019-03-19T09:03:52.665Z,7448.00
2019-03-19T09:04:52.856Z,13512.00
2019-03-19T09:05:53.034Z,13504.00
2019-03-19T09:06:53.207Z,13304.00
2019-03-19T09:07:53.382Z,13216.00
2019-03-19T09:08:53.557Z,13056.00
2019-03-19T09:09:53.733Z,13024.00
2019-03-19T09:10:53.931Z,8480.00
2019-03-19T09:11:54.116Z,11064.00
2019-03-19T09:12:54.264Z,13036.00
2019-03-19T09:13:54.442Z,13092.00
2019-03-19T09:14:54.619Z,13008.00
2019-03-19T09:15:54.800Z,11944.00
2019-03-19T09:16:54.963Z,7416.00
2019-03-19T09:17:55.142Z,13360.00
2019-03-19T09:18:55.323Z,11588.00
2019-03-19T09:19:55.506Z,14908.00
2019-03-19T09:20:55.681Z,14936.00
2019-03-19T09:21:55.859Z,9292.00
2019-03-19T09:22:56.216Z,8220.00
2019-03-19T09:23:56.219Z,8032.00
2019-03-19T09:24:56.401Z,7204.00
2019-03-19T09:25:56.592Z,6672.00
2019-03-19T09:26:56.765Z,6412.00
2019-03-19T09:27:56.963Z,6440.00
2019-03-19T09:28:57.140Z,6344.00
2019-03-19T09:29:57.325Z,6168.00
2019-03-19T09:30:57.516Z,5916.00
2019-03-19T09:31:57.673Z,5628.00
2019-03-19T09:32:57.853Z,5632.00
2019-03-19T09:33:58.023Z,5796.00
2019-03-19T09:34:58.201Z,6040.00
2019-03-19T09:35:58.375Z,13172.00
2019-03-19T09:36:58.571Z,13520.00
2019-03-19T09:37:59.331Z,13788.00
2019-03-19T09:38:58.911Z,13656.00
2019-03-19T09:39:59.086Z,14336.00
2019-03-19T09:40:59.273Z,8524.00
2019-03-19T09:41:59.446Z,7976.00
2019-03-19T09:42:59.633Z,8028.00
2019-03-19T09:43:59.801Z,7660.00
2019-03-19T09:44:59.978Z,7480.00
2019-03-19T09:46:00.163Z,7240.00
2019-03-19T09:47:00.340Z,7116.00
2019-03-19T09:48:00.520Z,13572.00
2019-03-19T09:49:00.705Z,13180.00
2019-03-19T09:50:00.879Z,7068.00
2019-03-19T09:51:01.068Z,6692.00
2019-03-19T09:52:01.237Z,6516.00
2019-03-19T09:53:01.448Z,6248.00
2019-03-19T09:54:01.593Z,6032.00
2019-03-19T09:55:01.798Z,11476.00
2019-03-19T09:56:01.948Z,13052.00
2019-03-19T09:57:02.127Z,13412.00
2019-03-19T09:58:02.316Z,13840.00
2019-03-19T09:59:02.493Z,13940.00
2019-03-19T10:00:02.664Z,13908.00
2019-03-19T10:01:02.818Z,13728.00
2019-03-19T10:02:03.000Z,13320.00
2019-03-19T10:03:03.196Z,13212.00
2019-03-19T10:04:03.360Z,12872.00
2019-03-19T10:05:03.526Z,8284.00
2019-03-19T10:06:13.615Z,5752.00
2019-03-19T10:07:06.379Z,5212.00
2019-03-19T10:08:04.051Z,5156.00
2019-03-19T10:09:04.226Z,5268.00
2019-03-19T10:10:04.431Z,5536.00
2019-03-19T10:11:04.573Z,6128.00
2019-03-19T10:12:04.802Z,6876.00
2019-03-19T10:13:04.940Z,7700.00
2019-03-19T10:14:05.107Z,12236.00
2019-03-19T10:15:05.288Z,13832.00
2019-03-19T10:16:07.602Z,14232.00
2019-03-19T10:17:05.638Z,14448.00
2019-03-19T10:18:05.823Z,11552.00
2019-03-19T10:19:05.994Z,7420.00
2019-03-19T10:20:06.173Z,6928.00
2019-03-19T10:21:06.374Z,6600.00
2019-03-19T10:22:06.551Z,6584.00
2019-03-19T10:23:06.721Z,6572.00
2019-03-19T10:24:06.895Z,6404.00
2019-03-19T10:25:07.079Z,6140.00
2019-03-19T10:26:07.254Z,5976.00
2019-03-19T10:27:07.424Z,6068.00
2019-03-19T10:28:07.607Z,6156.00
2019-03-19T10:29:07.808Z,6340.00
2019-03-19T10:30:07.962Z,6464.00
2019-03-19T10:31:08.145Z,7344.00
2019-03-19T10:32:08.336Z,9264.00
2019-03-19T10:33:08.497Z,12656.00
2019-03-19T10:34:08.676Z,8432.00
2019-03-19T10:35:08.877Z,7744.00
2019-03-19T10:36:11.908Z,9524.00
2019-03-19T10:37:09.636Z,10384.00
2019-03-19T10:38:09.803Z,6244.00
2019-03-19T10:39:11.118Z,5804.00
2019-03-19T10:40:11.040Z,7312.00
2019-03-19T10:41:10.311Z,13164.00
2019-03-19T10:42:10.633Z,13260.00
2019-03-19T10:43:10.813Z,12368.00
2019-03-19T10:44:11.573Z,13148.00
2019-03-19T10:45:10.895Z,11700.00
2019-03-19T10:46:11.461Z,12288.00
2019-03-19T10:47:11.374Z,13332.00
2019-03-19T10:48:11.807Z,13288.00
2019-03-19T10:49:12.016Z,7728.00
2019-03-19T10:50:11.816Z,6832.00
2019-03-19T10:51:12.306Z,6508.00
2019-03-19T10:52:13.033Z,6524.00
2019-03-19T10:53:12.437Z,6608.00
2019-03-19T10:54:12.645Z,6660.00
2019-03-19T10:55:12.905Z,6608.00
2019-03-19T10:56:14.172Z,6400.00
2019-03-19T10:57:13.246Z,6192.00
2019-03-19T10:58:14.524Z,6152.00
2019-03-19T10:59:13.954Z,6052.00
2019-03-19T11:00:13.506Z,7348.00
2019-03-19T11:01:13.682Z,5496.00
2019-03-19T11:02:13.847Z,5304.00
2019-03-19T11:03:14.065Z,5240.00
2019-03-19T11:04:14.212Z,5296.00
2019-03-19T11:05:14.382Z,4844.00
2019-03-19T11:06:14.552Z,4728.00
2019-03-19T11:07:15.344Z,4884.00
2019-03-19T11:08:14.896Z,7980.00
2019-03-19T11:09:15.066Z,9192.00
2019-03-19T11:10:15.238Z,10232.00
2019-03-19T11:11:15.386Z,10160.00
2019-03-19T11:12:15.551Z,10080.00
2019-03-19T11:13:15.735Z,10008.00
2019-03-19T11:14:15.955Z,9916.00
2019-03-19T11:15:16.346Z,9892.00
2019-03-19T11:16:16.324Z,9968.00
2019-03-19T11:17:16.646Z,9996.00
2019-03-19T11:18:19.404Z,10040.00
2019-03-19T11:19:17.043Z,10100.00
2019-03-19T11:20:17.621Z,10152.00
2019-03-19T11:21:18.507Z,10180.00
2019-03-19T11:22:18.518Z,10248.00
2019-03-19T11:23:17.958Z,10400.00
2019-03-19T11:24:18.007Z,10412.00
2019-03-19T11:25:18.254Z,10396.00
2019-03-19T11:26:18.796Z,10368.00
2019-03-19T11:27:19.643Z,10460.00
2019-03-19T11:28:18.646Z,10684.00
2019-03-19T11:29:19.100Z,11040.00
2019-03-19T11:30:20.222Z,11164.00
2019-03-19T11:31:19.718Z,10516.00
2019-03-19T11:32:20.727Z,8172.00
2019-03-19T11:33:20.141Z,11772.00
2019-03-19T11:34:20.261Z,11620.00
2019-03-19T11:35:19.865Z,8720.00
2019-03-19T11:36:21.652Z,12388.00
2019-03-19T11:37:21.446Z,11916.00
2019-03-19T11:38:20.476Z,12072.00
2019-03-19T11:39:20.828Z,11864.00
2019-03-19T11:40:20.915Z,6160.00
2019-03-19T11:41:20.940Z,5816.00
2019-03-19T11:42:21.217Z,5516.00
2019-03-19T11:43:23.296Z,5288.00
2019-03-19T11:44:21.620Z,5108.00
2019-03-19T11:45:21.809Z,4976.00
2019-03-19T11:46:21.959Z,4928.00
2019-03-19T11:47:22.223Z,4964.00
2019-03-19T11:48:22.285Z,4912.00
2019-03-19T11:49:22.489Z,4840.00
2019-03-19T11:50:22.625Z,4816.00
2019-03-19T11:51:22.801Z,4840.00
2019-03-19T11:52:22.981Z,4976.00
2019-03-19T11:53:23.148Z,5236.00
2019-03-19T11:54:23.318Z,7260.00
2019-03-19T11:55:23.523Z,6400.00
2019-03-19T11:56:23.913Z,5620.00
2019-03-19T11:57:24.154Z,5588.00
2019-03-19T11:58:24.163Z,5512.00
2019-03-19T11:59:24.267Z,5600.00
2019-03-19T12:00:24.632Z,6240.00
2019-03-19T12:01:28.027Z,5740.00
2019-03-19T12:02:26.147Z,5712.00
2019-03-19T12:03:25.062Z,5512.00
2019-03-19T12:04:25.187Z,5532.00
2019-03-19T12:05:25.353Z,5556.00
2019-03-19T12:06:25.536Z,5788.00
2019-03-19T12:07:25.717Z,6284.00
2019-03-19T12:08:25.874Z,5940.00
2019-03-19T12:09:26.040Z,5580.00
2019-03-19T12:10:26.223Z,7948.00
2019-03-19T12:11:26.409Z,7536.00
2019-03-19T12:12:28.184Z,5828.00
2019-03-19T12:13:26.841Z,5636.00
2019-03-19T12:14:27.104Z,5632.00
2019-03-19T12:15:27.184Z,5692.00
2019-03-19T12:16:27.291Z,5448.00
2019-03-19T12:17:27.499Z,5348.00
2019-03-19T12:18:27.956Z,5264.00
2019-03-19T12:19:27.877Z,5148.00
2019-03-19T12:20:28.710Z,4976.00
2019-03-19T12:21:29.189Z,4904.00
2019-03-19T12:22:28.481Z,4848.00
2019-03-19T12:23:28.755Z,4920.00
2019-03-19T12:24:28.879Z,5004.00
2019-03-19T12:25:31.219Z,7044.00
2019-03-19T12:26:29.431Z,5232.00
2019-03-19T12:27:29.476Z,7296.00
2019-03-19T12:28:39.311Z,6872.00
2019-03-19T12:29:29.828Z,7608.00
2019-03-19T12:30:30.100Z,7472.00
2019-03-19T12:31:30.346Z,7432.00
2019-03-19T12:32:30.321Z,7420.00
2019-03-19T12:33:40.322Z,7404.00
2019-03-19T12:34:30.754Z,7376.00